Linzy — SIRU — position and weather

sailwx.info

Track history (hours):
 
Tides and Currents Weather Stations Pressure Air Temp Water Temp Dewpoint Dewpoint Depression Visibility Wind Speed Wind Dir Waves Ship Positions

Linzy

Last reported at 2016-Sep-01 03:31 UTC. Time now 2016-Sep-01 03:42 UTC.
Position N 55°33' E 014°22'.

Length 15 m.

Type: Fishing. MMSI: 265507290.

Date/timePositionNaut miles runAvg speedWind from/ knotsBaromVisibWave heightAir tempDewpointWater temp
2016-Sep-01 03:31N 55°33' E 014°22'0 0.0
2016-Sep-01 02:31N 55°33' E 014°22'0 0.0
2016-Sep-01 01:25N 55°33' E 014°22'0 0.0
2016-Sep-01 00:31N 55°33' E 014°22'0 0.0
2016-Aug-31 23:25N 55°33' E 014°22'0 0.0
2016-Aug-31 22:25N 55°33' E 014°22'0 0.0
2016-Aug-31 21:31N 55°33' E 014°22'0 0.0
2016-Aug-31 20:31N 55°33' E 014°22'0 0.0
2016-Aug-31 19:31N 55°33' E 014°22'0 0.0
2016-Aug-31 18:31N 55°33' E 014°22'0 0.0
2016-Aug-31 17:31N 55°33' E 014°22'0 0.1
2016-Aug-31 16:33N 55°33' E 014°21'6 6.0
2016-Aug-31 15:33N 55°34' E 014°32'3 2.7
2016-Aug-31 14:25N 55°34' E 014°37'3 2.9
2016-Aug-31 13:33N 55°32' E 014°40'2 1.7
2016-Aug-31 12:33N 55°30' E 014°41'3 3.2
2016-Aug-31 11:33N 55°29' E 014°36'3 3.1
2016-Aug-31 10:33N 55°29' E 014°30'1 0.6
2016-Aug-31 09:33N 55°29' E 014°29'6 2.8
2016-Aug-31 07:17N 55°23' E 014°26'2 2.4
2016-Aug-31 06:32N 55°21' E 014°24'3 2.9
2016-Aug-31 05:34N 55°24' E 014°26'3 3.1
2016-Aug-31 04:32N 55°27' E 014°27'5 5.1
2016-Aug-31 03:33N 55°32' E 014°24'2 2.0
2016-Aug-31 02:28N 55°33' E 014°22'0 0.0
2016-Aug-31 01:28N 55°33' E 014°22'0 0.0
2016-Aug-31 00:28N 55°33' E 014°22'0 0.0
2016-Aug-30 23:28N 55°33' E 014°22'0 0.0
2016-Aug-30 22:28N 55°33' E 014°22'0 0.0
2016-Aug-30 21:28N 55°33' E 014°22'0 0.0
2016-Aug-30 20:28N 55°33' E 014°22'0 0.0
2016-Aug-30 19:28N 55°33' E 014°22'0 0.0
2016-Aug-30 18:28N 55°33' E 014°22'0 0.0
2016-Aug-30 17:22N 55°33' E 014°22'0 0.0
2016-Aug-30 16:22N 55°33' E 014°22'0 0.0
2016-Aug-30 15:28N 55°33' E 014°22'0 0.0
2016-Aug-30 14:28N 55°33' E 014°22'0 0.0
2016-Aug-30 13:28N 55°33' E 014°22'0 0.0
2016-Aug-30 12:28N 55°33' E 014°22'0 0.0
2016-Aug-30 11:28N 55°33' E 014°22'0 0.0
2016-Aug-30 10:22N 55°33' E 014°22'0 0.0
2016-Aug-30 09:22N 55°33' E 014°22'0 0.0
2016-Aug-30 08:28N 55°33' E 014°22'0 0.0
2016-Aug-30 07:22N 55°33' E 014°22'0 0.0
2016-Aug-30 06:22N 55°33' E 014°22'0 0.0
2016-Aug-30 04:28N 55°33' E 014°22'0 0.0
2016-Aug-30 03:28N 55°33' E 014°22'0 0.0
2016-Aug-30 02:28N 55°33' E 014°22'0 0.0
2016-Aug-30 01:28N 55°33' E 014°22'0 0.0
2016-Aug-30 00:28N 55°33' E 014°22'0 0.0
2016-Aug-29 23:22N 55°33' E 014°22'0 0.0
2016-Aug-29 22:28N 55°33' E 014°22'0 0.0
2016-Aug-29 21:28N 55°33' E 014°22'0 0.0
2016-Aug-29 20:22N 55°33' E 014°22'0 0.0
2016-Aug-29 19:10N 55°33' E 014°22'0 0.0
2016-Aug-29 18:28N 55°33' E 014°22'0 0.0
2016-Aug-29 17:28N 55°33' E 014°22'0 0.0
2016-Aug-29 16:28N 55°33' E 014°22'0 0.0
2016-Aug-29 15:28N 55°33' E 014°22'0 0.0
2016-Aug-29 14:28N 55°33' E 014°22'0 0.0
2016-Aug-29 13:28N 55°33' E 014°22'0 0.0
2016-Aug-29 12:28N 55°33' E 014°22'0 0.0
2016-Aug-29 11:28N 55°33' E 014°22'0 0.0
2016-Aug-29 10:28N 55°33' E 014°22'0 0.0
2016-Aug-29 09:28N 55°33' E 014°22'0 0.0
2016-Aug-29 08:28N 55°33' E 014°22'0 0.0
2016-Aug-29 07:28N 55°33' E 014°22'0 0.0
2016-Aug-29 06:28N 55°33' E 014°22'0 0.0
2016-Aug-29 04:28N 55°33' E 014°22'0 0.0
2016-Aug-29 03:28N 55°33' E 014°22'0 0.0
2016-Aug-29 02:28N 55°33' E 014°22'0 0.0
2016-Aug-29 01:28N 55°33' E 014°22'0 0.0
2016-Aug-29 00:28N 55°33' E 014°22'0 0.0
2016-Aug-28 23:28N 55°33' E 014°22'0 0.0
2016-Aug-28 22:28N 55°33' E 014°22'0 0.0
2016-Aug-28 21:28N 55°33' E 014°22'0 0.0
2016-Aug-28 20:28N 55°33' E 014°22'0 0.0
2016-Aug-28 19:16N 55°33' E 014°22'0 0.0
2016-Aug-28 18:28N 55°33' E 014°22'0 0.0
2016-Aug-28 17:28N 55°33' E 014°22'0 0.0
2016-Aug-28 16:04N 55°33' E 014°22'0 0.0
2016-Aug-28 15:28N 55°33' E 014°22'0 0.0
2016-Aug-28 14:28N 55°33' E 014°22'0 0.0
2016-Aug-28 13:28N 55°33' E 014°22'0 0.0
2016-Aug-28 12:33N 55°33' E 014°22'9 6.7
2016-Aug-28 11:17N 55°26' E 014°30'6 7.6
2016-Aug-28 10:34N 55°21' E 014°35'8 7.6
2016-Aug-28 09:33N 55°14' E 014°40'7 7.2
2016-Aug-28 08:33N 55°07' E 014°37'0 0.3
2016-Aug-28 07:33N 55°08' E 014°36'3 3.0
2016-Aug-28 06:32N 55°11' E 014°37'3 3.0
2016-Aug-28 05:33N 55°13' E 014°37'3 2.9
2016-Aug-28 04:33N 55°16' E 014°37'7 7.0
2016-Aug-28 03:33N 55°23' E 014°32'7 7.3
2016-Aug-28 02:33N 55°29' E 014°27'5 3.7
2016-Aug-28 01:12N 55°33' E 014°22'0 0.0
2016-Aug-27 23:24N 55°33' E 014°22'0 0.0
2016-Aug-27 22:30N 55°33' E 014°22'0 0.0
2016-Aug-27 21:24N 55°33' E 014°22'0 0.0
2016-Aug-27 20:24N 55°33' E 014°22'0 0.0
2016-Aug-27 19:30N 55°33' E 014°22'0 0.0
2016-Aug-27 18:30N 55°33' E 014°22'0 0.0
2016-Aug-27 17:30N 55°33' E 014°22'0 0.0
2016-Aug-27 16:30N 55°33' E 014°22'0 0.0
2016-Aug-27 15:30N 55°33' E 014°22'0 0.0
2016-Aug-27 14:30N 55°33' E 014°22'0 0.0
2016-Aug-27 13:30N 55°33' E 014°22'0 0.0
2016-Aug-27 12:30N 55°33' E 014°22'0 0.0
2016-Aug-27 11:18N 55°33' E 014°22'0 0.0
2016-Aug-27 10:24N 55°33' E 014°22'0 0.0
2016-Aug-27 09:24N 55°33' E 014°22'0 0.0
2016-Aug-27 08:30N 55°33' E 014°22'0 0.0
2016-Aug-27 07:18N 55°33' E 014°22'0 0.0
2016-Aug-27 06:12N 55°33' E 014°22'0 0.0
2016-Aug-27 03:06N 55°33' E 014°22'0 0.0
2016-Aug-27 02:24N 55°33' E 014°22'0 0.0
2016-Aug-27 01:30N 55°33' E 014°22'0 0.0
2016-Aug-27 00:18N 55°33' E 014°22'0 0.0
2016-Aug-26 22:30N 55°33' E 014°22'0 0.0
2016-Aug-26 21:06N 55°33' E 014°22'0 0.0
2016-Aug-26 20:30N 55°33' E 014°22'0 0.0
2016-Aug-26 19:30N 55°33' E 014°22'0 0.0
2016-Aug-26 18:30N 55°33' E 014°22'0 0.0
2016-Aug-26 17:30N 55°33' E 014°22'0 0.0
2016-Aug-26 16:30N 55°33' E 014°22'0 0.0
2016-Aug-26 15:30N 55°33' E 014°22'0 0.0
2016-Aug-26 14:30N 55°33' E 014°22'0 0.0
2016-Aug-26 13:24N 55°33' E 014°22'0 0.0
2016-Aug-26 12:30N 55°33' E 014°22'0 0.0
2016-Aug-26 11:30N 55°33' E 014°22'0 0.0
2016-Aug-26 10:30N 55°33' E 014°22'0 0.0
2016-Aug-26 09:24N 55°33' E 014°22'0 0.0
2016-Aug-26 08:24N 55°33' E 014°22'0 0.0
2016-Aug-26 07:30N 55°33' E 014°22'0 0.0
2016-Aug-26 06:24N 55°33' E 014°22'0 0.0
2016-Aug-26 04:30N 55°33' E 014°22'0 0.0
2016-Aug-26 03:30N 55°33' E 014°22'0 0.0
2016-Aug-26 02:30N 55°33' E 014°22'0 0.0
2016-Aug-26 01:30N 55°33' E 014°22'0 0.0
2016-Aug-26 00:30N 55°33' E 014°22'0 0.0
2016-Aug-25 23:30N 55°33' E 014°22'0 0.0
2016-Aug-25 22:30N 55°33' E 014°22'0 0.0
2016-Aug-25 21:30N 55°33' E 014°22'0 0.0
2016-Aug-25 20:30N 55°33' E 014°22'0 0.0
2016-Aug-25 19:30N 55°33' E 014°21'0 0.0
2016-Aug-25 18:30N 55°33' E 014°22'0 0.0
2016-Aug-25 17:24N 55°33' E 014°21'0 0.0
2016-Aug-25 16:30N 55°33' E 014°22'4 4.6
2016-Aug-25 15:33N 55°35' E 014°29'4 3.6
2016-Aug-25 14:33N 55°36' E 014°35'3 2.9
2016-Aug-25 13:27N 55°37' E 014°40'3 2.9
2016-Aug-25 12:30N 55°37' E 014°45'7 3.3
2016-Aug-25 10:29N 55°41' E 014°54'6 1.9
2016-Aug-25 07:29N 55°38' E 014°46'3 3.1
2016-Aug-25 06:28N 55°39' E 014°40'5 2.6
2016-Aug-25 04:29N 55°36' E 014°32'5 5.8
2016-Aug-25 03:32N 55°34' E 014°24'1 1.2
2016-Aug-25 02:27N 55°33' E 014°22'0 0.0
2016-Aug-25 01:33N 55°33' E 014°22'0 0.0
2016-Aug-25 00:33N 55°33' E 014°22'0 0.0
2016-Aug-24 23:33N 55°33' E 014°22'0 0.0
2016-Aug-24 22:33N 55°33' E 014°22'0 0.0
2016-Aug-24 21:33N 55°33' E 014°22'0 0.0
2016-Aug-24 20:27N 55°33' E 014°22'0 0.0
2016-Aug-24 17:09N 55°33' E 014°22'0 0.0
2016-Aug-24 16:21N 55°33' E 014°22'0 0.4
2016-Aug-24 15:31N 55°34' E 014°22'7 7.3
2016-Aug-24 14:32N 55°35' E 014°34'3 2.5
2016-Aug-24 13:30N 55°34' E 014°39'3 2.9
2016-Aug-24 12:33N 55°32' E 014°42'3 3.0
2016-Aug-24 11:33N 55°32' E 014°47'3 2.8
2016-Aug-24 10:33N 55°30' E 014°50'3 2.9
2016-Aug-24 09:33N 55°28' E 014°55'2 2.5
2016-Aug-24 08:33N 55°30' E 014°51'3 3.1
2016-Aug-24 07:33N 55°31' E 014°46'3 3.0
2016-Aug-24 06:32N 55°31' E 014°41'6 3.1
2016-Aug-24 04:33N 55°36' E 014°33'5 4.6
2016-Aug-24 03:27N 55°34' E 014°24'2 2.0
2016-Aug-24 02:31N 55°33' E 014°22'0 0.0
2016-Aug-24 01:31N 55°33' E 014°22'0 0.0
2016-Aug-24 00:31N 55°33' E 014°22'0 0.0
2016-Aug-23 23:31N 55°33' E 014°22'0 0.0
2016-Aug-23 22:31N 55°33' E 014°22'0 0.0
2016-Aug-23 21:31N 55°33' E 014°22'0 0.0
2016-Aug-23 20:31N 55°33' E 014°22'0 0.0
2016-Aug-23 19:31N 55°33' E 014°22'0 0.0
2016-Aug-23 18:31N 55°33' E 014°22'0 0.0
2016-Aug-23 17:31N 55°33' E 014°22'4 4.1
2016-Aug-23 16:33N 55°34' E 014°28'5 5.2
2016-Aug-23 15:33N 55°33' E 014°37'2 2.0
2016-Aug-23 14:33N 55°35' E 014°37'3 2.7
2016-Aug-23 13:27N 55°37' E 014°40'3 3.2
2016-Aug-23 12:27N 55°38' E 014°45'3 3.2
2016-Aug-23 11:32N 55°39' E 014°49'2 1.1
2016-Aug-23 09:33N 55°37' E 014°50'3 2.7
2016-Aug-23 08:33N 55°39' E 014°47'3 2.7
2016-Aug-23 07:28N 55°41' E 014°43'7 2.3
2016-Aug-23 04:15N 55°36' E 014°33'4 5.0
2016-Aug-23 03:33N 55°35' E 014°27'4 3.5
2016-Aug-23 02:32N 55°33' E 014°22'0 0.0
2016-Aug-23 01:20N 55°33' E 014°22'0 0.0
2016-Aug-23 00:32N 55°33' E 014°22'0 0.0
2016-Aug-22 23:32N 55°33' E 014°22'0 0.0
2016-Aug-22 22:32N 55°33' E 014°22'0 0.0
2016-Aug-22 21:32N 55°33' E 014°22'0 0.0
2016-Aug-22 20:32N 55°33' E 014°22'0 0.0
2016-Aug-22 19:32N 55°33' E 014°22'0 0.0
2016-Aug-22 18:32N 55°33' E 014°22'4 4.1
2016-Aug-22 17:33N 55°35' E 014°28'7 7.0
2016-Aug-22 16:32N 55°38' E 014°39'2 2.1
2016-Aug-22 15:33N 55°38' E 014°43'6 0.6
2016-Aug-22 04:32N 55°36' E 014°32'5 5.3
2016-Aug-22 03:32N 55°34' E 014°24'  
Track history (hours):
 
Tides and Currents Weather Stations Pressure Air Temp Water Temp Dewpoint Dewpoint Depression Visibility Wind Speed Wind Dir Waves Ship Positions

Linzy

Last reported at 2016-Sep-01 03:31 UTC. Time now 2016-Sep-01 03:42 UTC.
Position N 55°33' E 014°22'.

Length 15 m.

Type: Fishing. MMSI: 265507290.

Date/timePositionNaut miles runAvg speedWind from/ knotsBaromVisibWave heightAir tempDewpointWater temp
2016-Sep-01 03:31N 55°33' E 014°22'0 0.0
2016-Sep-01 02:31N 55°33' E 014°22'0 0.0
2016-Sep-01 01:25N 55°33' E 014°22'0 0.0
2016-Sep-01 00:31N 55°33' E 014°22'0 0.0
2016-Aug-31 23:25N 55°33' E 014°22'0 0.0
2016-Aug-31 22:25N 55°33' E 014°22'0 0.0
2016-Aug-31 21:31N 55°33' E 014°22'0 0.0
2016-Aug-31 20:31N 55°33' E 014°22'0 0.0
2016-Aug-31 19:31N 55°33' E 014°22'0 0.0
2016-Aug-31 18:31N 55°33' E 014°22'0 0.0
2016-Aug-31 17:31N 55°33' E 014°22'0 0.1
2016-Aug-31 16:33N 55°33' E 014°21'6 6.0
2016-Aug-31 15:33N 55°34' E 014°32'3 2.7
2016-Aug-31 14:25N 55°34' E 014°37'3 2.9
2016-Aug-31 13:33N 55°32' E 014°40'2 1.7
2016-Aug-31 12:33N 55°30' E 014°41'3 3.2
2016-Aug-31 11:33N 55°29' E 014°36'3 3.1
2016-Aug-31 10:33N 55°29' E 014°30'1 0.6
2016-Aug-31 09:33N 55°29' E 014°29'6 2.8
2016-Aug-31 07:17N 55°23' E 014°26'2 2.4
2016-Aug-31 06:32N 55°21' E 014°24'3 2.9
2016-Aug-31 05:34N 55°24' E 014°26'3 3.1
2016-Aug-31 04:32N 55°27' E 014°27'5 5.1
2016-Aug-31 03:33N 55°32' E 014°24'2 2.0
2016-Aug-31 02:28N 55°33' E 014°22'0 0.0
2016-Aug-31 01:28N 55°33' E 014°22'0 0.0
2016-Aug-31 00:28N 55°33' E 014°22'0 0.0
2016-Aug-30 23:28N 55°33' E 014°22'0 0.0
2016-Aug-30 22:28N 55°33' E 014°22'0 0.0
2016-Aug-30 21:28N 55°33' E 014°22'0 0.0
2016-Aug-30 20:28N 55°33' E 014°22'0 0.0
2016-Aug-30 19:28N 55°33' E 014°22'0 0.0
2016-Aug-30 18:28N 55°33' E 014°22'0 0.0
2016-Aug-30 17:22N 55°33' E 014°22'0 0.0
2016-Aug-30 16:22N 55°33' E 014°22'0 0.0
2016-Aug-30 15:28N 55°33' E 014°22'0 0.0
2016-Aug-30 14:28N 55°33' E 014°22'0 0.0
2016-Aug-30 13:28N 55°33' E 014°22'0 0.0
2016-Aug-30 12:28N 55°33' E 014°22'0 0.0
2016-Aug-30 11:28N 55°33' E 014°22'0 0.0
2016-Aug-30 10:22N 55°33' E 014°22'0 0.0
2016-Aug-30 09:22N 55°33' E 014°22'0 0.0
2016-Aug-30 08:28N 55°33' E 014°22'0 0.0
2016-Aug-30 07:22N 55°33' E 014°22'0 0.0
2016-Aug-30 06:22N 55°33' E 014°22'0 0.0
2016-Aug-30 04:28N 55°33' E 014°22'0 0.0
2016-Aug-30 03:28N 55°33' E 014°22'0 0.0
2016-Aug-30 02:28N 55°33' E 014°22'0 0.0
2016-Aug-30 01:28N 55°33' E 014°22'0 0.0
2016-Aug-30 00:28N 55°33' E 014°22'0 0.0
2016-Aug-29 23:22N 55°33' E 014°22'0 0.0
2016-Aug-29 22:28N 55°33' E 014°22'0 0.0
2016-Aug-29 21:28N 55°33' E 014°22'0 0.0
2016-Aug-29 20:22N 55°33' E 014°22'0 0.0
2016-Aug-29 19:10N 55°33' E 014°22'0 0.0
2016-Aug-29 18:28N 55°33' E 014°22'0 0.0
2016-Aug-29 17:28N 55°33' E 014°22'0 0.0
2016-Aug-29 16:28N 55°33' E 014°22'0 0.0
2016-Aug-29 15:28N 55°33' E 014°22'0 0.0
2016-Aug-29 14:28N 55°33' E 014°22'0 0.0
2016-Aug-29 13:28N 55°33' E 014°22'0 0.0
2016-Aug-29 12:28N 55°33' E 014°22'0 0.0
2016-Aug-29 11:28N 55°33' E 014°22'0 0.0
2016-Aug-29 10:28N 55°33' E 014°22'0 0.0
2016-Aug-29 09:28N 55°33' E 014°22'0 0.0
2016-Aug-29 08:28N 55°33' E 014°22'0 0.0
2016-Aug-29 07:28N 55°33' E 014°22'0 0.0
2016-Aug-29 06:28N 55°33' E 014°22'0 0.0
2016-Aug-29 04:28N 55°33' E 014°22'0 0.0
2016-Aug-29 03:28N 55°33' E 014°22'0 0.0
2016-Aug-29 02:28N 55°33' E 014°22'0 0.0
2016-Aug-29 01:28N 55°33' E 014°22'0 0.0
2016-Aug-29 00:28N 55°33' E 014°22'0 0.0
2016-Aug-28 23:28N 55°33' E 014°22'0 0.0
2016-Aug-28 22:28N 55°33' E 014°22'0 0.0
2016-Aug-28 21:28N 55°33' E 014°22'0 0.0
2016-Aug-28 20:28N 55°33' E 014°22'0 0.0
2016-Aug-28 19:16N 55°33' E 014°22'0 0.0
2016-Aug-28 18:28N 55°33' E 014°22'0 0.0
2016-Aug-28 17:28N 55°33' E 014°22'0 0.0
2016-Aug-28 16:04N 55°33' E 014°22'0 0.0
2016-Aug-28 15:28N 55°33' E 014°22'0 0.0
2016-Aug-28 14:28N 55°33' E 014°22'0 0.0
2016-Aug-28 13:28N 55°33' E 014°22'0 0.0
2016-Aug-28 12:33N 55°33' E 014°22'9 6.7
2016-Aug-28 11:17N 55°26' E 014°30'6 7.6
2016-Aug-28 10:34N 55°21' E 014°35'8 7.6
2016-Aug-28 09:33N 55°14' E 014°40'7 7.2
2016-Aug-28 08:33N 55°07' E 014°37'0 0.3
2016-Aug-28 07:33N 55°08' E 014°36'3 3.0
2016-Aug-28 06:32N 55°11' E 014°37'3 3.0
2016-Aug-28 05:33N 55°13' E 014°37'3 2.9
2016-Aug-28 04:33N 55°16' E 014°37'7 7.0
2016-Aug-28 03:33N 55°23' E 014°32'7 7.3
2016-Aug-28 02:33N 55°29' E 014°27'5 3.7
2016-Aug-28 01:12N 55°33' E 014°22'0 0.0
2016-Aug-27 23:24N 55°33' E 014°22'0 0.0
2016-Aug-27 22:30N 55°33' E 014°22'0 0.0
2016-Aug-27 21:24N 55°33' E 014°22'0 0.0
2016-Aug-27 20:24N 55°33' E 014°22'0 0.0
2016-Aug-27 19:30N 55°33' E 014°22'0 0.0
2016-Aug-27 18:30N 55°33' E 014°22'0 0.0
2016-Aug-27 17:30N 55°33' E 014°22'0 0.0
2016-Aug-27 16:30N 55°33' E 014°22'0 0.0
2016-Aug-27 15:30N 55°33' E 014°22'0 0.0
2016-Aug-27 14:30N 55°33' E 014°22'0 0.0
2016-Aug-27 13:30N 55°33' E 014°22'0 0.0
2016-Aug-27 12:30N 55°33' E 014°22'0 0.0
2016-Aug-27 11:18N 55°33' E 014°22'0 0.0
2016-Aug-27 10:24N 55°33' E 014°22'0 0.0
2016-Aug-27 09:24N 55°33' E 014°22'0 0.0
2016-Aug-27 08:30N 55°33' E 014°22'0 0.0
2016-Aug-27 07:18N 55°33' E 014°22'0 0.0
2016-Aug-27 06:12N 55°33' E 014°22'0 0.0
2016-Aug-27 03:06N 55°33' E 014°22'0 0.0
2016-Aug-27 02:24N 55°33' E 014°22'0 0.0
2016-Aug-27 01:30N 55°33' E 014°22'0 0.0
2016-Aug-27 00:18N 55°33' E 014°22'0 0.0
2016-Aug-26 22:30N 55°33' E 014°22'0 0.0
2016-Aug-26 21:06N 55°33' E 014°22'0 0.0
2016-Aug-26 20:30N 55°33' E 014°22'0 0.0
2016-Aug-26 19:30N 55°33' E 014°22'0 0.0
2016-Aug-26 18:30N 55°33' E 014°22'0 0.0
2016-Aug-26 17:30N 55°33' E 014°22'0 0.0
2016-Aug-26 16:30N 55°33' E 014°22'0 0.0
2016-Aug-26 15:30N 55°33' E 014°22'0 0.0
2016-Aug-26 14:30N 55°33' E 014°22'0 0.0
2016-Aug-26 13:24N 55°33' E 014°22'0 0.0
2016-Aug-26 12:30N 55°33' E 014°22'0 0.0
2016-Aug-26 11:30N 55°33' E 014°22'0 0.0
2016-Aug-26 10:30N 55°33' E 014°22'0 0.0
2016-Aug-26 09:24N 55°33' E 014°22'0 0.0
2016-Aug-26 08:24N 55°33' E 014°22'0 0.0
2016-Aug-26 07:30N 55°33' E 014°22'0 0.0
2016-Aug-26 06:24N 55°33' E 014°22'0 0.0
2016-Aug-26 04:30N 55°33' E 014°22'0 0.0
2016-Aug-26 03:30N 55°33' E 014°22'0 0.0
2016-Aug-26 02:30N 55°33' E 014°22'0 0.0
2016-Aug-26 01:30N 55°33' E 014°22'0 0.0
2016-Aug-26 00:30N 55°33' E 014°22'0 0.0
2016-Aug-25 23:30N 55°33' E 014°22'0 0.0
2016-Aug-25 22:30N 55°33' E 014°22'0 0.0
2016-Aug-25 21:30N 55°33' E 014°22'0 0.0
2016-Aug-25 20:30N 55°33' E 014°22'0 0.0
2016-Aug-25 19:30N 55°33' E 014°21'0 0.0
2016-Aug-25 18:30N 55°33' E 014°22'0 0.0
2016-Aug-25 17:24N 55°33' E 014°21'0 0.0
2016-Aug-25 16:30N 55°33' E 014°22'4 4.6
2016-Aug-25 15:33N 55°35' E 014°29'4 3.6
2016-Aug-25 14:33N 55°36' E 014°35'3 2.9
2016-Aug-25 13:27N 55°37' E 014°40'3 2.9
2016-Aug-25 12:30N 55°37' E 014°45'7 3.3
2016-Aug-25 10:29N 55°41' E 014°54'6 1.9
2016-Aug-25 07:29N 55°38' E 014°46'3 3.1
2016-Aug-25 06:28N 55°39' E 014°40'5 2.6
2016-Aug-25 04:29N 55°36' E 014°32'5 5.8
2016-Aug-25 03:32N 55°34' E 014°24'1 1.2
2016-Aug-25 02:27N 55°33' E 014°22'0 0.0
2016-Aug-25 01:33N 55°33' E 014°22'0 0.0
2016-Aug-25 00:33N 55°33' E 014°22'0 0.0
2016-Aug-24 23:33N 55°33' E 014°22'0 0.0
2016-Aug-24 22:33N 55°33' E 014°22'0 0.0
2016-Aug-24 21:33N 55°33' E 014°22'0 0.0
2016-Aug-24 20:27N 55°33' E 014°22'0 0.0
2016-Aug-24 17:09N 55°33' E 014°22'0 0.0
2016-Aug-24 16:21N 55°33' E 014°22'0 0.4
2016-Aug-24 15:31N 55°34' E 014°22'7 7.3
2016-Aug-24 14:32N 55°35' E 014°34'3 2.5
2016-Aug-24 13:30N 55°34' E 014°39'3 2.9
2016-Aug-24 12:33N 55°32' E 014°42'3 3.0
2016-Aug-24 11:33N 55°32' E 014°47'3 2.8
2016-Aug-24 10:33N 55°30' E 014°50'3 2.9
2016-Aug-24 09:33N 55°28' E 014°55'2 2.5
2016-Aug-24 08:33N 55°30' E 014°51'3 3.1
2016-Aug-24 07:33N 55°31' E 014°46'3 3.0
2016-Aug-24 06:32N 55°31' E 014°41'6 3.1
2016-Aug-24 04:33N 55°36' E 014°33'5 4.6
2016-Aug-24 03:27N 55°34' E 014°24'2 2.0
2016-Aug-24 02:31N 55°33' E 014°22'0 0.0
2016-Aug-24 01:31N 55°33' E 014°22'0 0.0
2016-Aug-24 00:31N 55°33' E 014°22'0 0.0
2016-Aug-23 23:31N 55°33' E 014°22'0 0.0
2016-Aug-23 22:31N 55°33' E 014°22'0 0.0
2016-Aug-23 21:31N 55°33' E 014°22'0 0.0
2016-Aug-23 20:31N 55°33' E 014°22'0 0.0
2016-Aug-23 19:31N 55°33' E 014°22'0 0.0
2016-Aug-23 18:31N 55°33' E 014°22'0 0.0
2016-Aug-23 17:31N 55°33' E 014°22'4 4.1
2016-Aug-23 16:33N 55°34' E 014°28'5 5.2
2016-Aug-23 15:33N 55°33' E 014°37'2 2.0
2016-Aug-23 14:33N 55°35' E 014°37'3 2.7
2016-Aug-23 13:27N 55°37' E 014°40'3 3.2
2016-Aug-23 12:27N 55°38' E 014°45'3 3.2
2016-Aug-23 11:32N 55°39' E 014°49'2 1.1
2016-Aug-23 09:33N 55°37' E 014°50'3 2.7
2016-Aug-23 08:33N 55°39' E 014°47'3 2.7
2016-Aug-23 07:28N 55°41' E 014°43'7 2.3
2016-Aug-23 04:15N 55°36' E 014°33'4 5.0
2016-Aug-23 03:33N 55°35' E 014°27'4 3.5
2016-Aug-23 02:32N 55°33' E 014°22'0 0.0
2016-Aug-23 01:20N 55°33' E 014°22'0 0.0
2016-Aug-23 00:32N 55°33' E 014°22'0 0.0
2016-Aug-22 23:32N 55°33' E 014°22'0 0.0
2016-Aug-22 22:32N 55°33' E 014°22'0 0.0
2016-Aug-22 21:32N 55°33' E 014°22'0 0.0
2016-Aug-22 20:32N 55°33' E 014°22'0 0.0
2016-Aug-22 19:32N 55°33' E 014°22'0 0.0
2016-Aug-22 18:32N 55°33' E 014°22'4 4.1
2016-Aug-22 17:33N 55°35' E 014°28'7 7.0
2016-Aug-22 16:32N 55°38' E 014°39'2 2.1
2016-Aug-22 15:33N 55°38' E 014°43'6 0.6
2016-Aug-22 04:32N 55°36' E 014°32'5 5.3
2016-Aug-22 03:32N 55°34' E 014°24'  

Dump ship's entire track history